Time;durP1;ratioP1;P1;durP2;ratioP2;P2;SDS_P1;SDS_P2;PMS_P1;PMS_P2;Temp;Humidity;BMP_temperature;BMP_pressure;BME280_temperature;BME280_humidity;BME280_pressure;Samples;Min_cycle;Max_cycle;Signal;HPM_P1;HPM_P2
2021/12/18 00:01:58;;;;;;;251.10;38.17;;;8.10;99.90;;;;;;5052362;28;20546;-76
2021/12/18 00:04:27;;;;;;;200.07;30.80;;;8.10;99.90;;;;;;5068851;28;20443;-76
2021/12/18 00:06:57;;;;;;;187.57;31.77;;;8.10;99.90;;;;;;5051934;28;20505;-76
2021/12/18 00:09:29;;;;;;;143.67;27.50;;;8.10;99.90;;;;;;5053464;28;20520;-76
2021/12/18 00:11:57;;;;;;;208.07;33.00;;;8.10;99.90;;;;;;5052769;28;20528;-76
2021/12/18 00:14:25;;;;;;;249.40;32.53;;;8.00;99.90;;;;;;5052017;28;20479;-76
2021/12/18 00:16:53;;;;;;;143.67;21.37;;;8.00;99.90;;;;;;5053592;28;20465;-76
2021/12/18 00:19:25;;;;;;;147.70;26.13;;;8.00;99.90;;;;;;5051968;28;20492;-76
2021/12/18 00:21:54;;;;;;;154.27;20.43;;;8.00;99.90;;;;;;5068662;28;20530;-76
2021/12/18 00:24:25;;;;;;;139.73;18.83;;;8.00;99.90;;;;;;5051938;28;20451;-76
2021/12/18 00:26:53;;;;;;;149.80;17.60;;;8.00;99.90;;;;;;5053345;28;20465;-75
2021/12/18 00:29:22;;;;;;;225.23;21.50;;;8.00;99.90;;;;;;5051821;28;20442;-76
2021/12/18 00:31:51;;;;;;;122.43;22.27;;;8.00;99.90;;;;;;5068601;28;20477;-76
2021/12/18 00:34:19;;;;;;;144.50;18.63;;;8.00;99.90;;;;;;5051977;28;20500;-76
2021/12/18 00:36:47;;;;;;;107.43;17.20;;;8.00;99.90;;;;;;5053046;28;20556;-76
2021/12/18 00:39:15;;;;;;;200.70;25.10;;;8.00;99.90;;;;;;5053007;28;20442;-76
2021/12/18 00:42:07;;;;;;;163.07;26.03;;;8.00;99.90;;;;;;5051718;28;20441;-76
2021/12/18 00:44:36;;;;;;;227.97;26.00;;;8.00;99.90;;;;;;5052237;28;20453;-76
2021/12/18 00:47:04;;;;;;;128.93;24.20;;;8.00;99.90;;;;;;5068217;28;20522;-76
2021/12/18 00:49:33;;;;;;;75.47;20.57;;;8.00;99.90;;;;;;5051523;28;20482;-76
2021/12/18 00:52:01;;;;;;;73.00;16.60;;;8.00;99.90;;;;;;5051407;28;20446;-76
2021/12/18 00:54:29;;;;;;;154.60;20.03;;;7.90;99.90;;;;;;5052905;28;20973;-76
2021/12/18 00:56:59;;;;;;;92.67;14.20;;;8.00;99.90;;;;;;5051210;28;21092;-76
2021/12/18 00:59:27;;;;;;;198.67;19.77;;;7.90;99.90;;;;;;5067960;28;20458;-76
2021/12/18 01:01:56;;;;;;;124.17;21.90;;;8.00;99.90;;;;;;5051444;28;20448;-76
2021/12/18 01:04:24;;;;;;;143.97;17.50;;;7.90;99.90;;;;;;5051898;28;20451;-76
2021/12/18 01:06:52;;;;;;;122.97;18.50;;;8.00;99.90;;;;;;5051493;28;20464;-76
2021/12/18 01:09:28;;;;;;;84.20;15.63;;;7.90;99.90;;;;;;5051482;28;20549;-76
2021/12/18 01:11:58;;;;;;;167.73;21.40;;;8.00;99.90;;;;;;5052948;28;20420;-75
2021/12/18 01:14:42;;;;;;;115.57;21.70;;;8.00;99.90;;;;;;5051332;28;20459;-75
2021/12/18 01:22:47;;;;;;;95.47;16.13;;;7.90;99.90;;;;;;5051408;28;20434;-75
2021/12/18 01:25:18;;;;;;;80.83;13.73;;;7.90;99.90;;;;;;5056540;28;20567;-75
2021/12/18 01:27:48;;;;;;;92.63;15.13;;;7.90;99.90;;;;;;5056391;28;20450;-76
2021/12/18 01:30:17;;;;;;;84.63;14.20;;;7.90;99.90;;;;;;5057264;28;20463;-75
2021/12/18 01:32:45;;;;;;;103.20;15.00;;;7.90;99.90;;;;;;5071838;28;20448;-75
2021/12/18 01:35:14;;;;;;;95.60;16.67;;;7.90;99.90;;;;;;5056273;28;20465;-75
2021/12/18 01:37:43;;;;;;;183.37;27.17;;;7.80;99.90;;;;;;5054850;28;20841;-75
2021/12/18 01:40:13;;;;;;;78.87;14.90;;;7.90;99.90;;;;;;5056475;28;20459;-76
2021/12/18 01:45:37;;;;;;;140.80;18.47;;;7.90;99.90;;;;;;5055136;28;20459;-76
2021/12/18 01:53:37;;;;;;;99.70;12.83;;;7.80;99.90;;;;;;5054796;28;20441;-75
2021/12/18 01:56:06;;;;;;;133.00;14.53;;;7.90;99.90;;;;;;5056081;28;20480;-75
2021/12/18 01:58:34;;;;;;;79.63;12.90;;;7.90;99.90;;;;;;5054864;28;20954;-76
2021/12/18 02:01:04;;;;;;;144.17;14.83;;;7.80;99.90;;;;;;5055775;28;20842;-76
2021/12/18 02:03:34;;;;;;;136.60;17.03;;;7.90;99.90;;;;;;5055831;28;20958;-76
2021/12/18 02:06:02;;;;;;;173.07;15.93;;;7.80;99.90;;;;;;5054391;28;20522;-77
2021/12/18 02:08:33;;;;;;;145.13;20.10;;;7.80;99.90;;;;;;5055066;28;20864;-76
2021/12/18 02:11:11;;;;;;;207.97;28.27;;;7.80;99.90;;;;;;5056284;28;20453;-76
2021/12/18 02:20:21;;;;;;;124.37;14.83;;;7.80;99.90;;;;;;5112012;28;20445;-76
2021/12/18 02:22:49;;;;;;;182.33;18.77;;;7.80;99.90;;;;;;5112173;28;20474;-77
2021/12/18 02:25:17;;;;;;;127.90;20.67;;;7.80;99.90;;;;;;5110855;28;20444;-77
2021/12/18 02:27:48;;;;;;;203.43;25.83;;;7.80;99.90;;;;;;5111064;28;20491;-77
2021/12/18 02:30:16;;;;;;;148.23;19.53;;;7.80;99.90;;;;;;5110173;28;21028;-76
2021/12/18 02:32:44;;;;;;;142.20;14.80;;;7.80;99.90;;;;;;5110085;28;20454;-77
2021/12/18 02:35:27;;;;;;;167.33;23.13;;;7.80;99.90;;;;;;5110269;28;20516;-77
2021/12/18 02:38:09;;;;;;;188.23;23.27;;;7.80;99.90;;;;;;5110301;28;20468;-77
2021/12/18 02:43:28;;;;;;;50.97;6.83;;;7.80;99.90;;;;;;5101170;28;20443;-76
2021/12/18 02:45:59;;;;;;;253.97;25.50;;;7.80;99.90;;;;;;5109222;28;20440;-77
2021/12/18 02:48:30;;;;;;;176.43;20.90;;;7.80;99.90;;;;;;5110427;28;20457;-75
2021/12/18 02:51:00;;;;;;;153.07;20.77;;;7.80;99.90;;;;;;5110645;28;20420;-76
2021/12/18 02:53:28;;;;;;;200.00;23.50;;;7.80;99.90;;;;;;5109352;28;21027;-76
2021/12/18 02:55:59;;;;;;;136.43;18.53;;;7.80;99.90;;;;;;5108852;28;20478;-76
2021/12/18 02:58:28;;;;;;;198.43;19.10;;;7.80;99.90;;;;;;5109230;28;20441;-76
2021/12/18 03:00:59;;;;;;;206.27;17.07;;;7.80;99.90;;;;;;5108814;28;20968;-77
2021/12/18 03:03:31;;;;;;;100.90;20.83;;;7.80;99.90;;;;;;5110338;28;20544;-76
2021/12/18 03:06:18;;;;;;;189.87;24.07;;;7.80;99.90;;;;;;5109869;28;20475;-76
2021/12/18 03:08:52;;;;;;;135.80;19.20;;;7.80;99.90;;;;;;5108706;28;20513;-76
2021/12/18 03:25:41;;;;;;;150.90;18.07;;;7.80;99.90;;;;;;5028694;28;20451;-78
2021/12/18 03:28:09;;;;;;;94.90;11.93;;;7.80;99.90;;;;;;4997777;28;20481;-77
2021/12/18 03:30:42;;;;;;;152.60;20.53;;;7.70;99.90;;;;;;5055521;28;20461;-77
2021/12/18 03:33:10;;;;;;;121.87;16.83;;;7.80;99.90;;;;;;5095279;28;20447;-76
2021/12/18 03:35:38;;;;;;;141.20;21.83;;;7.70;99.90;;;;;;5095974;28;20470;-76
2021/12/18 03:38:09;;;;;;;125.80;16.77;;;7.80;99.90;;;;;;5095588;28;20498;-76
2021/12/18 03:40:38;;;;;;;51.23;8.90;;;7.70;99.90;;;;;;5094457;28;20494;-75
2021/12/18 03:43:06;;;;;;;132.10;15.30;;;7.80;99.90;;;;;;5095666;28;20522;-75
2021/12/18 03:45:34;;;;;;;65.50;9.93;;;7.80;99.90;;;;;;5094293;28;20457;-76
2021/12/18 03:48:02;;;;;;;74.23;17.33;;;7.80;99.90;;;;;;5095705;28;20465;-76
2021/12/18 03:50:31;;;;;;;84.33;12.70;;;7.80;99.90;;;;;;5096259;28;20524;-76
2021/12/18 03:52:59;;;;;;;248.70;29.17;;;7.80;99.90;;;;;;5095378;28;20973;-76
2021/12/18 03:55:28;;;;;;;97.10;23.77;;;7.80;99.90;;;;;;5095505;28;20806;-75
2021/12/18 03:57:57;;;;;;;133.47;17.37;;;7.80;99.90;;;;;;5095578;28;20463;-76
2021/12/18 04:00:25;;;;;;;117.40;20.20;;;7.80;99.90;;;;;;5094015;28;20562;-76
2021/12/18 04:02:53;;;;;;;96.77;16.07;;;7.80;99.90;;;;;;5095515;28;20447;-76
2021/12/18 04:05:21;;;;;;;120.17;17.27;;;7.80;99.90;;;;;;5093887;28;20473;-76
2021/12/18 04:07:50;;;;;;;71.57;13.00;;;7.80;99.90;;;;;;5093922;28;20570;-76
2021/12/18 04:10:19;;;;;;;199.27;27.53;;;7.80;99.90;;;;;;5095109;28;20456;-76
2021/12/18 04:12:50;;;;;;;84.73;17.87;;;7.80;99.90;;;;;;5095736;28;20437;-75
2021/12/18 04:15:18;;;;;;;147.83;19.27;;;7.80;99.90;;;;;;5099333;28;20467;-77
2021/12/18 04:17:46;;;;;;;91.93;16.50;;;7.80;99.90;;;;;;5098951;28;20471;-76
2021/12/18 04:20:16;;;;;;;205.07;26.07;;;7.80;99.90;;;;;;5094172;28;20795;-77
2021/12/18 04:22:44;;;;;;;184.40;22.70;;;7.80;99.90;;;;;;5093855;28;20458;-77
2021/12/18 04:25:12;;;;;;;89.77;14.97;;;7.80;99.90;;;;;;5093815;28;20446;-77
2021/12/18 04:27:40;;;;;;;103.37;14.20;;;7.80;99.90;;;;;;5093510;28;20478;-76
2021/12/18 04:30:12;;;;;;;81.43;12.90;;;7.80;99.90;;;;;;5095260;28;20455;-76
2021/12/18 04:32:40;;;;;;;157.50;24.03;;;7.80;99.90;;;;;;5093637;28;20436;-76
2021/12/18 04:35:09;;;;;;;92.13;10.50;;;7.80;99.90;;;;;;5093576;28;20472;-76
2021/12/18 04:37:37;;;;;;;98.80;15.53;;;7.70;99.90;;;;;;5092997;28;20481;-76
2021/12/18 04:40:06;;;;;;;138.30;17.13;;;7.80;99.90;;;;;;5093253;28;20441;-76
2021/12/18 04:42:35;;;;;;;199.23;23.97;;;7.80;99.90;;;;;;5093333;28;20554;-76
2021/12/18 04:45:04;;;;;;;77.33;11.30;;;7.80;99.90;;;;;;5093901;28;20811;-76
2021/12/18 04:47:34;;;;;;;154.33;19.67;;;7.80;99.90;;;;;;5093610;28;20485;-76
2021/12/18 04:50:02;;;;;;;113.00;19.73;;;7.80;99.90;;;;;;5094544;28;20480;-76
2021/12/18 04:52:30;;;;;;;91.90;13.30;;;7.70;99.90;;;;;;5094465;28;20448;-75
2021/12/18 04:54:58;;;;;;;150.30;18.90;;;7.80;99.90;;;;;;5093139;28;20440;-75
2021/12/18 04:57:26;;;;;;;102.07;16.23;;;7.80;99.90;;;;;;5093848;28;21013;-76
2021/12/18 04:59:55;;;;;;;106.33;14.13;;;7.70;99.90;;;;;;5094213;28;20440;-76
2021/12/18 05:02:33;;;;;;;131.60;15.60;;;7.80;99.90;;;;;;5093210;28;20964;-76
2021/12/18 05:05:04;;;;;;;87.67;17.00;;;7.70;99.90;;;;;;5095637;28;20431;-78
2021/12/18 05:07:33;;;;;;;87.23;13.20;;;7.70;99.90;;;;;;5094164;28;20464;-78
2021/12/18 05:10:02;;;;;;;94.20;12.00;;;7.70;99.90;;;;;;5094475;28;20447;-78
2021/12/18 05:12:30;;;;;;;108.93;15.57;;;7.70;99.90;;;;;;5097040;28;20448;-78
2021/12/18 05:14:58;;;;;;;90.87;13.13;;;7.80;99.90;;;;;;5093649;28;20467;-78
2021/12/18 05:17:26;;;;;;;178.47;18.97;;;7.70;99.90;;;;;;5094716;28;20481;-77
2021/12/18 05:19:54;;;;;;;54.20;14.00;;;7.70;99.90;;;;;;5093449;28;20541;-77
2021/12/18 05:22:24;;;;;;;122.13;11.70;;;7.70;99.90;;;;;;5094879;28;20927;-76
2021/12/18 05:24:52;;;;;;;150.03;18.27;;;7.70;99.90;;;;;;5094594;28;20556;-77
2021/12/18 05:27:20;;;;;;;138.40;20.60;;;7.70;99.90;;;;;;5094521;28;20885;-77
2021/12/18 05:29:48;;;;;;;143.97;21.70;;;7.80;99.90;;;;;;5093118;28;20451;-77
2021/12/18 05:32:16;;;;;;;93.07;11.70;;;7.70;99.90;;;;;;5092909;28;20461;-77
2021/12/18 05:34:44;;;;;;;164.20;21.80;;;7.80;99.90;;;;;;5094438;28;20447;-77
2021/12/18 05:37:30;;;;;;;83.87;15.10;;;7.70;99.90;;;;;;5092691;28;20584;-78
2021/12/18 05:40:00;;;;;;;124.73;18.27;;;7.80;99.90;;;;;;5094446;28;20794;-77
2021/12/18 05:42:28;;;;;;;140.50;16.57;;;7.70;99.90;;;;;;5094175;28;20450;-77
2021/12/18 05:44:56;;;;;;;105.40;15.00;;;7.80;99.90;;;;;;5093020;28;20549;-78
2021/12/18 05:47:24;;;;;;;91.33;16.73;;;7.70;99.90;;;;;;5092655;28;20830;-77
2021/12/18 05:49:53;;;;;;;141.93;22.13;;;7.70;99.90;;;;;;5094533;28;20449;-77
2021/12/18 05:52:22;;;;;;;158.37;19.57;;;7.70;99.90;;;;;;5094540;28;20968;-78
2021/12/18 05:54:50;;;;;;;88.20;11.83;;;7.70;99.90;;;;;;5094724;28;20544;-78
2021/12/18 05:57:20;;;;;;;91.57;12.90;;;7.70;99.90;;;;;;5094540;28;20475;-77
2021/12/18 05:59:48;;;;;;;125.33;16.90;;;7.80;99.90;;;;;;5093651;28;20491;-77
2021/12/18 06:02:16;;;;;;;233.17;24.30;;;7.70;99.90;;;;;;5094364;28;20435;-78
2021/12/18 06:04:45;;;;;;;151.03;19.80;;;7.70;99.90;;;;;;5092952;28;20448;-77
2021/12/18 06:07:27;;;;;;;112.67;23.47;;;7.70;99.90;;;;;;5094369;28;20461;-77
2021/12/18 06:09:56;;;;;;;163.40;20.10;;;7.70;99.90;;;;;;5095220;28;20450;-76
2021/12/18 06:12:26;;;;;;;85.77;13.93;;;7.70;99.90;;;;;;5094466;28;20443;-78
2021/12/18 06:14:54;;;;;;;129.77;12.63;;;7.70;99.90;;;;;;5092915;28;20552;-78
2021/12/18 06:17:22;;;;;;;235.30;25.97;;;7.70;99.90;;;;;;5098467;28;20517;-78
2021/12/18 06:19:50;;;;;;;111.07;21.07;;;7.70;99.90;;;;;;5096246;28;20457;-77
2021/12/18 06:22:18;;;;;;;57.53;16.13;;;7.70;99.90;;;;;;5097135;28;20448;-77
2021/12/18 06:24:47;;;;;;;182.13;19.33;;;7.70;99.90;;;;;;5095511;28;20482;-76
2021/12/18 06:27:15;;;;;;;75.23;9.77;;;7.70;99.90;;;;;;5091917;28;20477;-75
2021/12/18 06:29:46;;;;;;;155.03;16.43;;;7.70;99.90;;;;;;5091873;28;20439;-75
2021/12/18 06:32:14;;;;;;;81.87;16.50;;;7.70;99.90;;;;;;5093460;28;20422;-75
2021/12/18 06:34:42;;;;;;;126.17;17.40;;;7.70;99.90;;;;;;5091903;28;20575;-76
2021/12/18 06:37:10;;;;;;;108.57;13.33;;;7.70;99.90;;;;;;5091828;28;20471;-76
2021/12/18 06:39:38;;;;;;;209.40;27.70;;;7.70;99.90;;;;;;5094209;28;20811;-76
2021/12/18 06:42:07;;;;;;;146.90;19.07;;;7.70;99.90;;;;;;5091644;28;20452;-76
2021/12/18 06:44:35;;;;;;;258.63;22.17;;;7.70;99.90;;;;;;5095277;28;21005;-78
2021/12/18 06:47:05;;;;;;;212.20;29.77;;;7.70;99.90;;;;;;5094241;28;20458;-77
2021/12/18 06:49:33;;;;;;;177.87;24.60;;;7.70;99.90;;;;;;5092874;28;20822;-77
2021/12/18 06:52:02;;;;;;;139.23;21.17;;;7.70;99.90;;;;;;5094368;28;20947;-77
2021/12/18 06:54:30;;;;;;;209.20;26.57;;;7.70;99.90;;;;;;5095683;28;20436;-78
2021/12/18 06:56:59;;;;;;;100.83;15.53;;;7.70;99.90;;;;;;5096087;28;20506;-78
2021/12/18 06:59:27;;;;;;;170.13;19.43;;;7.70;99.90;;;;;;5093725;28;20446;-76
2021/12/18 07:01:55;;;;;;;269.47;27.23;;;7.70;99.90;;;;;;5094802;28;20449;-76
2021/12/18 07:04:25;;;;;;;116.13;15.20;;;7.70;99.90;;;;;;5097252;28;20446;-77
2021/12/18 07:06:54;;;;;;;236.03;29.73;;;7.70;99.90;;;;;;5098501;28;20459;-77
2021/12/18 07:09:22;;;;;;;117.73;22.80;;;7.70;99.90;;;;;;5096431;28;20480;-77
2021/12/18 07:11:50;;;;;;;83.47;17.67;;;7.70;99.90;;;;;;5096435;28;20479;-75
2021/12/18 07:14:19;;;;;;;124.03;26.07;;;7.70;99.90;;;;;;5095112;28;20450;-75
2021/12/18 07:16:47;;;;;;;143.57;17.03;;;7.70;99.90;;;;;;5097840;28;20956;-77
2021/12/18 07:19:15;;;;;;;192.70;29.20;;;7.70;99.90;;;;;;5096159;28;20436;-76
2021/12/18 07:21:53;;;;;;;142.07;15.33;;;7.70;99.90;;;;;;5096912;28;20945;-75
2021/12/18 07:24:21;;;;;;;181.67;23.77;;;7.70;99.90;;;;;;5097599;28;20446;-77
2021/12/18 07:26:49;;;;;;;187.13;29.23;;;7.70;99.90;;;;;;5096945;28;20471;-78
2021/12/18 07:29:18;;;;;;;184.83;25.77;;;7.70;99.90;;;;;;5097786;28;20799;-78
2021/12/18 07:31:46;;;;;;;79.53;15.13;;;7.70;99.90;;;;;;5095430;28;20882;-77
2021/12/18 07:34:14;;;;;;;153.70;20.03;;;7.70;99.90;;;;;;5096950;28;20726;-76
2021/12/18 07:36:44;;;;;;;18.10;6.95;;;7.70;99.90;;;;;;5096024;28;20956;-76
2021/12/18 07:39:14;;;;;;;164.87;23.43;;;7.80;99.90;;;;;;5095236;28;20221;-77
2021/12/18 07:41:42;;;;;;;193.20;23.83;;;7.80;99.90;;;;;;5096335;28;20444;-77
2021/12/18 07:44:10;;;;;;;166.77;22.57;;;7.80;99.90;;;;;;5094981;28;20468;-77
2021/12/18 07:46:39;;;;;;;151.30;15.53;;;7.80;99.90;;;;;;5094634;28;20981;-77
2021/12/18 07:49:08;;;;;;;178.07;27.80;;;7.70;99.90;;;;;;5094705;28;20503;-77
2021/12/18 07:51:37;;;;;;;114.07;19.27;;;7.70;99.90;;;;;;5096539;28;20457;-77
2021/12/18 07:54:06;;;;;;;126.07;16.60;;;7.70;99.90;;;;;;5095163;28;20888;-77
2021/12/18 07:56:37;;;;;;;156.97;27.43;;;7.70;99.90;;;;;;5094726;28;21105;-77
2021/12/18 07:59:05;;;;;;;221.83;31.50;;;7.70;99.90;;;;;;5094601;28;20875;-76
2021/12/18 08:01:33;;;;;;;182.60;21.43;;;7.70;99.90;;;;;;5094383;28;20552;-77
2021/12/18 08:04:01;;;;;;;197.67;19.43;;;7.70;99.90;;;;;;5094284;28;20453;-76
2021/12/18 08:06:32;;;;;;;170.33;25.13;;;7.70;99.90;;;;;;5084948;28;21012;-77
2021/12/18 08:09:00;;;;;;;168.93;21.10;;;7.70;99.90;;;;;;5076199;28;20915;-77
2021/12/18 08:11:28;;;;;;;194.37;21.60;;;7.70;99.90;;;;;;5074389;28;20445;-75
2021/12/18 08:13:58;;;;;;;136.10;20.23;;;7.70;99.90;;;;;;5075212;28;20451;-75
2021/12/18 08:16:27;;;;;;;164.33;28.80;;;7.70;99.90;;;;;;5075916;28;20474;-77
2021/12/18 08:18:55;;;;;;;177.67;34.70;;;7.70;99.90;;;;;;5073936;28;20466;-77
2021/12/18 08:21:23;;;;;;;215.00;29.10;;;7.80;99.90;;;;;;5073807;28;20792;-77
2021/12/18 08:23:51;;;;;;;221.70;31.57;;;7.70;99.90;;;;;;5073968;28;20554;-76
2021/12/18 08:26:20;;;;;;;174.57;23.37;;;7.70;99.90;;;;;;5074286;28;20460;-77
2021/12/18 08:28:48;;;;;;;129.03;16.53;;;7.70;99.90;;;;;;5073787;28;20450;-76
2021/12/18 08:31:18;;;;;;;195.23;21.30;;;7.70;99.90;;;;;;5074003;28;20506;-77
2021/12/18 08:33:46;;;;;;;112.33;16.63;;;7.70;99.90;;;;;;5076584;28;20445;-77
2021/12/18 08:36:14;;;;;;;201.23;25.77;;;7.70;99.90;;;;;;5076945;28;20438;-78
2021/12/18 08:38:42;;;;;;;178.40;23.77;;;7.80;99.90;;;;;;5075345;28;21018;-77
2021/12/18 08:41:11;;;;;;;179.10;25.07;;;7.80;99.90;;;;;;5075291;28;20480;-77
2021/12/18 08:43:39;;;;;;;157.57;23.53;;;7.80;99.90;;;;;;5074926;28;20475;-77
2021/12/18 08:46:07;;;;;;;168.93;21.27;;;7.80;99.90;;;;;;5073421;28;20965;-77
2021/12/18 08:48:37;;;;;;;127.77;19.07;;;7.80;99.90;;;;;;5074424;28;20454;-76
2021/12/18 08:51:05;;;;;;;164.37;24.27;;;7.80;99.90;;;;;;5088616;28;20537;-77
2021/12/18 08:53:33;;;;;;;176.87;19.87;;;7.80;99.90;;;;;;5089503;28;20977;-77
2021/12/18 08:56:02;;;;;;;152.27;24.83;;;7.90;99.90;;;;;;5075948;28;20431;-77
2021/12/18 08:58:30;;;;;;;194.10;24.60;;;7.90;99.90;;;;;;5074213;28;20479;-77
2021/12/18 09:00:58;;;;;;;98.60;13.30;;;7.90;99.90;;;;;;5093049;28;20525;-77
2021/12/18 09:03:27;;;;;;;163.27;26.90;;;7.90;99.90;;;;;;5089924;28;20460;-77
2021/12/18 09:05:57;;;;;;;123.63;23.70;;;7.90;99.90;;;;;;5074425;28;20505;-77
2021/12/18 09:08:25;;;;;;;122.13;21.40;;;7.90;99.90;;;;;;5083282;28;20567;-77
2021/12/18 09:10:54;;;;;;;122.37;20.63;;;7.90;99.90;;;;;;5072703;28;20449;-77
2021/12/18 09:13:22;;;;;;;167.57;24.13;;;8.00;99.90;;;;;;5072772;28;20820;-76
2021/12/18 09:15:50;;;;;;;226.27;35.37;;;8.00;99.90;;;;;;5073747;28;20482;-76
2021/12/18 09:18:18;;;;;;;192.23;26.10;;;8.00;99.90;;;;;;5073752;28;20524;-77
2021/12/18 09:20:47;;;;;;;113.70;17.53;;;8.00;99.90;;;;;;5089399;28;20460;-77
2021/12/18 09:23:18;;;;;;;104.37;22.90;;;8.10;99.90;;;;;;5078764;28;20459;-77
2021/12/18 09:25:47;;;;;;;107.87;18.53;;;8.10;99.90;;;;;;5071951;28;20455;-77
2021/12/18 09:28:15;;;;;;;109.13;20.83;;;8.10;99.90;;;;;;5076447;28;20978;-77
2021/12/18 09:30:43;;;;;;;205.57;22.13;;;8.10;99.90;;;;;;5072225;28;20452;-77
2021/12/18 09:33:13;;;;;;;138.30;25.57;;;8.10;99.90;;;;;;5072228;28;20475;-77
2021/12/18 09:35:41;;;;;;;125.73;23.23;;;8.10;99.90;;;;;;5072265;28;20979;-77
2021/12/18 09:38:09;;;;;;;104.63;16.07;;;8.10;99.90;;;;;;5071993;28;20473;-76
2021/12/18 09:40:40;;;;;;;122.13;20.07;;;8.20;99.90;;;;;;5073392;28;20805;-77
2021/12/18 09:43:08;;;;;;;33.70;10.43;;;8.20;99.90;;;;;;5073482;28;20921;-77
2021/12/18 09:45:38;;;;;;;226.83;25.77;;;8.20;99.90;;;;;;5072083;28;20493;-76
2021/12/18 09:48:06;;;;;;;146.57;18.47;;;8.20;99.90;;;;;;5071965;28;20487;-76
2021/12/18 09:50:37;;;;;;;71.10;11.87;;;8.20;99.90;;;;;;5073634;28;20432;-76
2021/12/18 09:53:06;;;;;;;91.00;15.33;;;8.20;99.90;;;;;;5073704;28;20464;-77
2021/12/18 09:55:34;;;;;;;126.60;18.63;;;8.20;99.90;;;;;;5075293;28;20528;-77
2021/12/18 09:58:06;;;;;;;176.33;18.60;;;8.30;99.90;;;;;;5076821;28;20474;-76
2021/12/18 10:00:34;;;;;;;214.77;29.27;;;8.30;99.90;;;;;;5084104;28;20488;-76
2021/12/18 10:03:02;;;;;;;48.00;12.97;;;8.40;99.90;;;;;;5093506;28;20829;-77
2021/12/18 10:05:33;;;;;;;122.67;17.67;;;8.40;99.90;;;;;;5093001;28;20522;-78
2021/12/18 10:08:07;;;;;;;239.13;26.63;;;8.40;99.90;;;;;;5090080;28;20456;-77
2021/12/18 10:10:35;;;;;;;166.47;12.47;;;8.40;99.90;;;;;;5073192;28;20454;-77
2021/12/18 10:13:08;;;;;;;148.47;21.33;;;8.40;99.90;;;;;;5073641;28;20478;-77
2021/12/18 10:15:37;;;;;;;221.60;22.07;;;8.50;99.90;;;;;;5072998;28;20482;-77
2021/12/18 10:18:07;;;;;;;203.73;28.47;;;8.50;99.90;;;;;;5074122;28;20476;-77
2021/12/18 10:20:38;;;;;;;120.47;13.23;;;8.50;99.90;;;;;;5074159;28;20468;-77
2021/12/18 10:23:06;;;;;;;136.03;22.23;;;8.50;99.90;;;;;;5072798;28;20487;-78
2021/12/18 10:25:42;;;;;;;74.53;11.83;;;8.50;99.90;;;;;;5094560;28;20460;-78
2021/12/18 10:28:18;;;;;;;135.50;17.93;;;8.60;99.90;;;;;;5083854;28;20519;-78
2021/12/18 10:30:48;;;;;;;135.40;21.00;;;8.60;99.90;;;;;;5075079;28;20413;-77
2021/12/18 10:33:17;;;;;;;172.90;20.30;;;8.50;99.90;;;;;;5073646;28;20420;-77
2021/12/18 10:35:48;;;;;;;96.63;11.23;;;8.60;99.90;;;;;;5073570;28;20476;-77
2021/12/18 10:38:36;;;;;;;169.63;17.07;;;8.60;99.90;;;;;;5075391;28;20556;-77
2021/12/18 10:41:24;;;;;;;180.70;25.07;;;8.60;99.90;;;;;;5075974;28;20426;-77
2021/12/18 10:44:00;;;;;;;206.47;28.83;;;8.60;99.90;;;;;;5076750;28;20441;-78
2021/12/18 10:46:29;;;;;;;193.37;29.43;;;8.60;99.90;;;;;;5077340;28;20554;-78
2021/12/18 10:49:00;;;;;;;279.40;34.33;;;8.60;99.90;;;;;;5077530;28;20436;-77
2021/12/18 10:51:30;;;;;;;249.37;30.93;;;8.60;99.90;;;;;;5076443;28;20554;-77
2021/12/18 10:54:05;;;;;;;212.23;29.83;;;8.60;99.90;;;;;;5075963;28;20440;-77
2021/12/18 10:56:36;;;;;;;280.53;32.57;;;8.60;99.90;;;;;;5087933;28;20497;-77
2021/12/18 10:59:20;;;;;;;236.03;32.73;;;8.60;99.90;;;;;;5097831;28;20814;-77
2021/12/18 11:01:52;;;;;;;181.43;23.70;;;8.60;99.90;;;;;;5097990;28;20830;-78
2021/12/18 11:04:24;;;;;;;245.83;35.30;;;8.60;99.90;;;;;;5096368;28;20442;-76
2021/12/18 11:06:54;;;;;;;116.03;18.07;;;8.60;99.90;;;;;;5096316;28;20478;-74
2021/12/18 11:09:30;;;;;;;227.73;33.20;;;8.70;99.90;;;;;;5095663;28;20504;-76
2021/12/18 11:14:47;;;;;;;83.90;17.53;;;8.70;99.90;;;;;;5076349;28;20480;-76
2021/12/18 11:17:16;;;;;;;233.20;31.03;;;8.70;99.90;;;;;;5089060;28;20538;-76
2021/12/18 11:19:45;;;;;;;270.80;37.00;;;8.70;99.90;;;;;;5076730;28;20555;-77
2021/12/18 11:22:15;;;;;;;160.17;20.13;;;8.70;99.90;;;;;;5075190;28;20487;-76
2021/12/18 11:24:50;;;;;;;130.20;14.63;;;8.70;99.90;;;;;;5076245;28;20452;-77
2021/12/18 11:27:21;;;;;;;187.40;21.70;;;8.80;99.90;;;;;;5076138;28;20543;-77
2021/12/18 11:29:55;;;;;;;205.33;30.33;;;8.70;99.90;;;;;;5074962;28;20476;-77
2021/12/18 11:32:26;;;;;;;179.83;32.23;;;8.80;99.90;;;;;;5076674;28;20474;-77
2021/12/18 11:34:57;;;;;;;144.37;22.37;;;8.80;99.90;;;;;;5075340;28;20937;-77
2021/12/18 11:37:26;;;;;;;150.13;27.33;;;8.80;99.90;;;;;;5074868;28;20476;-77
2021/12/18 11:39:58;;;;;;;254.17;31.00;;;8.80;99.90;;;;;;5075021;28;20478;-77
2021/12/18 11:42:29;;;;;;;257.73;36.23;;;8.90;99.90;;;;;;5076735;28;20424;-78
2021/12/18 11:45:01;;;;;;;161.87;20.63;;;8.90;99.90;;;;;;5095868;28;21023;-77
2021/12/18 11:47:32;;;;;;;242.07;29.67;;;8.90;99.90;;;;;;5091225;28;21012;-75
2021/12/18 11:50:05;;;;;;;222.47;21.73;;;8.90;99.90;;;;;;5076471;28;20508;-77
2021/12/18 11:52:55;;;;;;;187.00;21.50;;;9.00;99.90;;;;;;5076258;28;20500;-77
2021/12/18 11:55:27;;;;;;;112.10;22.40;;;9.00;99.90;;;;;;5074537;28;20437;-77
2021/12/18 11:57:58;;;;;;;178.20;25.50;;;9.00;99.90;;;;;;5076622;28;20473;-77
2021/12/18 12:00:44;;;;;;;213.40;31.37;;;9.00;99.90;;;;;;5075885;28;20485;-76
2021/12/18 12:03:26;;;;;;;156.97;20.93;;;9.00;99.90;;;;;;5088405;28;20985;-77
2021/12/18 12:05:56;;;;;;;204.33;28.60;;;9.10;99.90;;;;;;5075064;28;20447;-76
2021/12/18 12:08:36;;;;;;;149.73;27.43;;;9.10;99.90;;;;;;5077917;28;20478;-77
2021/12/18 12:11:23;;;;;;;309.37;31.23;;;9.10;99.90;;;;;;5089559;28;20443;-76
2021/12/18 12:14:04;;;;;;;260.10;30.93;;;9.20;99.90;;;;;;5095207;28;20432;-76
2021/12/18 12:17:09;;;;;;;128.73;29.43;;;9.20;99.90;;;;;;5093837;28;20475;-76
2021/12/18 12:19:52;;;;;;;347.77;30.87;;;9.20;99.90;;;;;;5079411;28;20470;-76
2021/12/18 12:22:41;;;;;;;201.23;22.23;;;9.30;99.90;;;;;;5075662;28;20507;-77
2021/12/18 12:25:12;;;;;;;264.43;37.53;;;9.30;99.90;;;;;;5075638;28;20452;-77
2021/12/18 12:27:42;;;;;;;224.30;24.40;;;9.30;99.90;;;;;;5073943;28;20465;-76
2021/12/18 12:30:12;;;;;;;192.23;28.83;;;9.30;99.90;;;;;;5093620;28;20974;-77
2021/12/18 12:32:56;;;;;;;235.23;25.13;;;9.30;99.90;;;;;;5094228;28;20466;-77
2021/12/18 12:35:24;;;;;;;142.90;26.83;;;9.40;99.90;;;;;;5081915;28;20504;-76
2021/12/18 12:37:54;;;;;;;193.67;24.60;;;9.40;99.90;;;;;;5093625;28;20895;-76
2021/12/18 12:40:34;;;;;;;221.93;36.30;;;9.40;99.90;;;;;;5087400;28;20473;-76
2021/12/18 12:43:16;;;;;;;182.17;23.47;;;9.40;99.90;;;;;;5095231;28;20459;-77
2021/12/18 12:45:48;;;;;;;258.70;35.60;;;9.40;99.90;;;;;;5095112;28;20420;-77
2021/12/18 12:48:18;;;;;;;155.10;21.60;;;9.50;99.90;;;;;;5094966;28;20455;-77
2021/12/18 12:50:55;;;;;;;447.70;56.53;;;9.50;99.90;;;;;;5084449;28;20817;-77
2021/12/18 12:53:43;;;;;;;266.43;32.20;;;9.50;99.90;;;;;;5074761;28;20446;-77
2021/12/18 12:56:15;;;;;;;302.40;34.67;;;9.50;99.90;;;;;;5073432;28;20449;-75
2021/12/18 12:58:44;;;;;;;194.97;27.13;;;9.60;99.90;;;;;;5074781;28;20438;-77
2021/12/18 13:01:12;;;;;;;291.93;40.07;;;9.50;99.90;;;;;;5072886;28;20853;-77
2021/12/18 13:03:48;;;;;;;412.17;67.03;;;9.60;99.90;;;;;;5073294;28;20460;-77
2021/12/18 13:06:20;;;;;;;393.03;76.23;;;9.60;99.90;;;;;;5074836;28;20781;-77
2021/12/18 13:08:50;;;;;;;346.77;56.73;;;9.60;99.90;;;;;;5074735;28;20515;-77
2021/12/18 13:11:22;;;;;;;341.93;62.83;;;9.60;99.90;;;;;;5074891;28;20437;-78
2021/12/18 13:13:52;;;;;;;458.00;61.00;;;9.60;99.90;;;;;;5075576;28;20511;-76
2021/12/18 13:16:22;;;;;;;288.10;30.77;;;9.60;99.90;;;;;;5072975;28;20518;-76
2021/12/18 13:18:53;;;;;;;295.97;44.37;;;9.60;99.90;;;;;;5089369;28;20484;-76
2021/12/18 13:21:23;;;;;;;355.20;49.83;;;9.60;99.90;;;;;;5072421;28;21007;-76
2021/12/18 13:23:55;;;;;;;439.53;53.03;;;9.70;99.90;;;;;;5073165;28;20530;-77
2021/12/18 13:26:30;;;;;;;441.97;56.20;;;9.70;99.90;;;;;;5073031;28;20440;-77